Main page
METAR-TAF:

METAR-TAF

Airports :

Blue River Airport

Blue River, British Columbia, Canada

latitude: 52-08N, longitude: 119-18W, elevation: 679 m

Current weather observation

The report was made 1 hour and 14 minutes ago, at 18:00 UTC
Wind 3 kt from variable directions
Temperature 17°C
Humidity 36%
Pressure 1018 hPa
Visibility: 24.1 km
Scattered clouds at a height of 7500 ft
Broken clouds at a height of 10000 ft
Broken clouds at a height of 25000 ft

METAR: CYCP 191800Z VRB03KT 15SM SCT075 BKN100 BKN250 17/02 A3006 RMK CU3AC2CI1 CI TR SLP190 DENSITY ALT 2900FT

Time: 12:14 (19:14 UTC)


TAF: missing

Weather observations and forecasts of more than 4000 airports (METAR and TAF reports).

The available stations are represented by yellow and red dots on the map.

Hover mouse over dot to see the name of the station.

Then click to see weather observations and forecasts.

To change the map : click on the green buttons with a black cross to zoom in, on the green button with a dash to zoom out, or on the green arrows for adjacent maps.


METAR-TAF: